sensor_id;sensor_type;location;lat;lon;timestamp;temperature;humidity
6439;DHT22;3252;52.540;13.290;2023-08-08T00:01:25;14.80;99.90
6439;DHT22;3252;52.540;13.290;2023-08-08T00:03:28;14.80;99.90
6439;DHT22;3252;52.540;13.290;2023-08-08T00:05:31;14.80;99.90
6439;DHT22;3252;52.540;13.290;2023-08-08T00:07:38;14.80;99.90
6439;DHT22;3252;52.540;13.290;2023-08-08T00:09:42;14.80;99.90
6439;DHT22;3252;52.540;13.290;2023-08-08T00:11:48;14.80;99.90
6439;DHT22;3252;52.540;13.290;2023-08-08T00:13:51;14.70;99.90
6439;DHT22;3252;52.540;13.290;2023-08-08T00:15:57;14.70;99.90
6439;DHT22;3252;52.540;13.290;2023-08-08T00:18:00;14.70;99.90
6439;DHT22;3252;52.540;13.290;2023-08-08T00:20:03;14.70;99.90
6439;DHT22;3252;52.540;13.290;2023-08-08T00:22:10;14.60;99.90
6439;DHT22;3252;52.540;13.290;2023-08-08T00:24:14;14.60;99.90
6439;DHT22;3252;52.540;13.290;2023-08-08T00:26:17;14.70;99.90
6439;DHT22;3252;52.540;13.290;2023-08-08T00:28:20;14.60;99.90
6439;DHT22;3252;52.540;13.290;2023-08-08T00:30:23;14.60;99.90
6439;DHT22;3252;52.540;13.290;2023-08-08T00:32:28;14.60;99.90
6439;DHT22;3252;52.540;13.290;2023-08-08T00:34:31;14.70;99.90
6439;DHT22;3252;52.540;13.290;2023-08-08T00:36:34;14.60;99.90
6439;DHT22;3252;52.540;13.290;2023-08-08T00:38:37;14.60;99.90
6439;DHT22;3252;52.540;13.290;2023-08-08T00:40:44;14.60;99.90
6439;DHT22;3252;52.540;13.290;2023-08-08T00:42:47;14.60;99.90
6439;DHT22;3252;52.540;13.290;2023-08-08T00:44:50;14.60;99.90
6439;DHT22;3252;52.540;13.290;2023-08-08T00:46:53;14.50;99.90
6439;DHT22;3252;52.540;13.290;2023-08-08T00:48:56;14.50;99.90
6439;DHT22;3252;52.540;13.290;2023-08-08T00:50:59;14.50;99.90
6439;DHT22;3252;52.540;13.290;2023-08-08T00:53:05;14.50;99.90
6439;DHT22;3252;52.540;13.290;2023-08-08T00:55:08;14.40;99.90
6439;DHT22;3252;52.540;13.290;2023-08-08T00:57:16;14.40;99.90
6439;DHT22;3252;52.540;13.290;2023-08-08T00:59:22;14.40;99.90
6439;DHT22;3252;52.540;13.290;2023-08-08T01:01:25;14.40;99.90
6439;DHT22;3252;52.540;13.290;2023-08-08T01:03:32;14.40;99.90
6439;DHT22;3252;52.540;13.290;2023-08-08T01:05:41;14.40;99.90
6439;DHT22;3252;52.540;13.290;2023-08-08T01:07:57;14.40;99.90
6439;DHT22;3252;52.540;13.290;2023-08-08T01:10:05;14.30;99.90
6439;DHT22;3252;52.540;13.290;2023-08-08T01:12:11;14.30;99.90
6439;DHT22;3252;52.540;13.290;2023-08-08T01:14:16;14.30;99.90
6439;DHT22;3252;52.540;13.290;2023-08-08T01:16:20;14.30;99.90
6439;DHT22;3252;52.540;13.290;2023-08-08T01:18:30;14.30;99.90
6439;DHT22;3252;52.540;13.290;2023-08-08T01:20:36;14.20;99.90
6439;DHT22;3252;52.540;13.290;2023-08-08T01:22:47;14.20;99.90
6439;DHT22;3252;52.540;13.290;2023-08-08T01:24:53;14.20;99.90
6439;DHT22;3252;52.540;13.290;2023-08-08T01:26:56;14.20;99.90
6439;DHT22;3252;52.540;13.290;2023-08-08T01:28:59;14.20;99.90
6439;DHT22;3252;52.540;13.290;2023-08-08T01:31:03;14.20;99.90
6439;DHT22;3252;52.540;13.290;2023-08-08T01:33:07;14.20;99.90
6439;DHT22;3252;52.540;13.290;2023-08-08T01:35:10;14.10;99.90
6439;DHT22;3252;52.540;13.290;2023-08-08T01:37:18;14.10;99.90
6439;DHT22;3252;52.540;13.290;2023-08-08T01:39:29;14.10;99.90
6439;DHT22;3252;52.540;13.290;2023-08-08T01:41:38;14.00;99.90
6439;DHT22;3252;52.540;13.290;2023-08-08T01:43:41;14.00;99.90
6439;DHT22;3252;52.540;13.290;2023-08-08T01:45:47;13.90;99.90
6439;DHT22;3252;52.540;13.290;2023-08-08T01:47:52;13.90;99.90
6439;DHT22;3252;52.540;13.290;2023-08-08T01:49:58;14.00;99.90
6439;DHT22;3252;52.540;13.290;2023-08-08T01:52:13;13.90;99.90
6439;DHT22;3252;52.540;13.290;2023-08-08T01:54:20;13.90;99.90
6439;DHT22;3252;52.540;13.290;2023-08-08T01:56:33;13.90;99.90
6439;DHT22;3252;52.540;13.290;2023-08-08T01:58:38;13.80;99.90
6439;DHT22;3252;52.540;13.290;2023-08-08T02:01:35;13.90;99.90
6439;DHT22;3252;52.540;13.290;2023-08-08T02:03:40;13.90;99.90
6439;DHT22;3252;52.540;13.290;2023-08-08T02:06:03;13.80;99.90
6439;DHT22;3252;52.540;13.290;2023-08-08T02:08:13;13.80;99.90
6439;DHT22;3252;52.540;13.290;2023-08-08T02:10:20;13.80;99.90
6439;DHT22;3252;52.540;13.290;2023-08-08T02:12:23;13.80;99.90
6439;DHT22;3252;52.540;13.290;2023-08-08T02:14:31;13.80;99.90
6439;DHT22;3252;52.540;13.290;2023-08-08T02:16:35;13.80;99.90
6439;DHT22;3252;52.540;13.290;2023-08-08T02:18:39;13.80;99.90
6439;DHT22;3252;52.540;13.290;2023-08-08T02:20:45;13.80;99.90
6439;DHT22;3252;52.540;13.290;2023-08-08T02:22:51;13.80;99.90
6439;DHT22;3252;52.540;13.290;2023-08-08T02:25:03;13.80;99.90
6439;DHT22;3252;52.540;13.290;2023-08-08T02:27:07;13.80;99.90
6439;DHT22;3252;52.540;13.290;2023-08-08T02:29:14;13.80;99.90
6439;DHT22;3252;52.540;13.290;2023-08-08T02:31:23;13.70;99.90
6439;DHT22;3252;52.540;13.290;2023-08-08T02:33:30;13.80;99.90
6439;DHT22;3252;52.540;13.290;2023-08-08T02:35:48;13.80;99.90
6439;DHT22;3252;52.540;13.290;2023-08-08T02:37:55;13.70;99.90
6439;DHT22;3252;52.540;13.290;2023-08-08T02:40:01;13.60;99.90
6439;DHT22;3252;52.540;13.290;2023-08-08T02:42:07;13.60;99.90
6439;DHT22;3252;52.540;13.290;2023-08-08T02:44:11;13.60;99.90
6439;DHT22;3252;52.540;13.290;2023-08-08T02:46:26;13.60;99.90
6439;DHT22;3252;52.540;13.290;2023-08-08T02:48:33;13.60;99.90
6439;DHT22;3252;52.540;13.290;2023-08-08T02:50:37;13.50;99.90
6439;DHT22;3252;52.540;13.290;2023-08-08T02:52:40;13.50;99.90
6439;DHT22;3252;52.540;13.290;2023-08-08T02:54:44;13.50;99.90
6439;DHT22;3252;52.540;13.290;2023-08-08T02:56:49;13.50;99.90
6439;DHT22;3252;52.540;13.290;2023-08-08T02:58:53;13.50;99.90
6439;DHT22;3252;52.540;13.290;2023-08-08T03:01:00;13.50;99.90
6439;DHT22;3252;52.540;13.290;2023-08-08T03:03:06;13.50;99.90
6439;DHT22;3252;52.540;13.290;2023-08-08T03:05:13;13.40;99.90
6439;DHT22;3252;52.540;13.290;2023-08-08T03:07:17;13.40;99.90
6439;DHT22;3252;52.540;13.290;2023-08-08T03:09:29;13.40;99.90
6439;DHT22;3252;52.540;13.290;2023-08-08T03:11:37;13.40;99.90
6439;DHT22;3252;52.540;13.290;2023-08-08T03:13:45;13.40;99.90
6439;DHT22;3252;52.540;13.290;2023-08-08T03:15:48;13.40;99.90
6439;DHT22;3252;52.540;13.290;2023-08-08T03:17:53;13.40;99.90
6439;DHT22;3252;52.540;13.290;2023-08-08T03:20:00;13.40;99.90
6439;DHT22;3252;52.540;13.290;2023-08-08T03:22:08;13.40;99.90
6439;DHT22;3252;52.540;13.290;2023-08-08T03:24:13;13.40;99.90
6439;DHT22;3252;52.540;13.290;2023-08-08T03:26:18;13.40;99.90
6439;DHT22;3252;52.540;13.290;2023-08-08T03:28:25;13.40;99.90
6439;DHT22;3252;52.540;13.290;2023-08-08T03:30:29;13.40;99.90
6439;DHT22;3252;52.540;13.290;2023-08-08T03:32:36;13.40;99.90
6439;DHT22;3252;52.540;13.290;2023-08-08T03:34:39;13.40;99.90
6439;DHT22;3252;52.540;13.290;2023-08-08T03:36:44;13.40;99.90
6439;DHT22;3252;52.540;13.290;2023-08-08T03:38:47;13.40;99.90
6439;DHT22;3252;52.540;13.290;2023-08-08T03:40:53;13.40;99.90
6439;DHT22;3252;52.540;13.290;2023-08-08T03:43:00;13.40;99.90
6439;DHT22;3252;52.540;13.290;2023-08-08T03:45:15;13.40;99.90
6439;DHT22;3252;52.540;13.290;2023-08-08T03:47:28;13.40;99.90
6439;DHT22;3252;52.540;13.290;2023-08-08T03:49:56;13.40;99.90
6439;DHT22;3252;52.540;13.290;2023-08-08T03:52:07;13.50;99.90
6439;DHT22;3252;52.540;13.290;2023-08-08T03:54:11;13.50;99.90
6439;DHT22;3252;52.540;13.290;2023-08-08T03:56:15;13.50;99.90
6439;DHT22;3252;52.540;13.290;2023-08-08T03:58:18;13.50;99.90
6439;DHT22;3252;52.540;13.290;2023-08-08T04:00:24;13.50;99.90
6439;DHT22;3252;52.540;13.290;2023-08-08T04:02:28;13.50;99.90
6439;DHT22;3252;52.540;13.290;2023-08-08T04:04:34;13.50;99.90
6439;DHT22;3252;52.540;13.290;2023-08-08T04:06:38;13.50;99.90
6439;DHT22;3252;52.540;13.290;2023-08-08T04:08:46;13.50;99.90
6439;DHT22;3252;52.540;13.290;2023-08-08T04:10:59;13.50;99.90
6439;DHT22;3252;52.540;13.290;2023-08-08T04:13:02;13.60;99.90
6439;DHT22;3252;52.540;13.290;2023-08-08T04:15:06;13.60;99.90
6439;DHT22;3252;52.540;13.290;2023-08-08T04:17:13;13.50;99.90
6439;DHT22;3252;52.540;13.290;2023-08-08T04:19:22;13.60;99.90
6439;DHT22;3252;52.540;13.290;2023-08-08T04:21:26;13.60;99.90
6439;DHT22;3252;52.540;13.290;2023-08-08T04:23:30;13.60;99.90
6439;DHT22;3252;52.540;13.290;2023-08-08T04:25:34;13.60;99.90
6439;DHT22;3252;52.540;13.290;2023-08-08T04:27:37;13.60;99.90
6439;DHT22;3252;52.540;13.290;2023-08-08T04:29:42;13.60;99.90
6439;DHT22;3252;52.540;13.290;2023-08-08T04:31:45;13.60;99.90
6439;DHT22;3252;52.540;13.290;2023-08-08T04:33:53;13.60;99.90
6439;DHT22;3252;52.540;13.290;2023-08-08T04:36:04;13.60;99.90
6439;DHT22;3252;52.540;13.290;2023-08-08T04:38:07;13.60;99.90
6439;DHT22;3252;52.540;13.290;2023-08-08T04:40:10;13.60;99.90
6439;DHT22;3252;52.540;13.290;2023-08-08T04:42:14;13.60;99.90
6439;DHT22;3252;52.540;13.290;2023-08-08T04:44:18;13.60;99.90
6439;DHT22;3252;52.540;13.290;2023-08-08T04:46:22;13.70;99.90
6439;DHT22;3252;52.540;13.290;2023-08-08T04:48:24;13.70;99.90
6439;DHT22;3252;52.540;13.290;2023-08-08T04:50:30;13.70;99.90
6439;DHT22;3252;52.540;13.290;2023-08-08T04:52:36;13.70;99.90
6439;DHT22;3252;52.540;13.290;2023-08-08T04:54:43;13.80;99.90
6439;DHT22;3252;52.540;13.290;2023-08-08T04:56:52;13.70;99.90
6439;DHT22;3252;52.540;13.290;2023-08-08T04:58:58;13.80;99.90
6439;DHT22;3252;52.540;13.290;2023-08-08T05:01:10;13.80;99.90
6439;DHT22;3252;52.540;13.290;2023-08-08T05:03:20;13.80;99.90
6439;DHT22;3252;52.540;13.290;2023-08-08T05:05:29;13.80;99.90
6439;DHT22;3252;52.540;13.290;2023-08-08T05:07:45;13.90;99.90
6439;DHT22;3252;52.540;13.290;2023-08-08T05:09:59;13.90;99.90
6439;DHT22;3252;52.540;13.290;2023-08-08T05:12:14;13.90;99.90
6439;DHT22;3252;52.540;13.290;2023-08-08T05:14:30;13.90;99.90
6439;DHT22;3252;52.540;13.290;2023-08-08T05:16:37;13.90;99.90
6439;DHT22;3252;52.540;13.290;2023-08-08T05:18:50;13.90;99.90
6439;DHT22;3252;52.540;13.290;2023-08-08T05:20:57;13.90;99.90
6439;DHT22;3252;52.540;13.290;2023-08-08T05:23:00;13.90;99.90
6439;DHT22;3252;52.540;13.290;2023-08-08T05:25:07;13.90;99.90
6439;DHT22;3252;52.540;13.290;2023-08-08T05:27:12;13.90;99.90
6439;DHT22;3252;52.540;13.290;2023-08-08T05:29:16;14.00;99.90
6439;DHT22;3252;52.540;13.290;2023-08-08T05:31:25;14.10;99.90
6439;DHT22;3252;52.540;13.290;2023-08-08T05:33:33;14.10;99.90
6439;DHT22;3252;52.540;13.290;2023-08-08T05:35:47;14.20;99.90
6439;DHT22;3252;52.540;13.290;2023-08-08T05:37:53;14.20;99.90
6439;DHT22;3252;52.540;13.290;2023-08-08T05:40:00;14.30;99.90
6439;DHT22;3252;52.540;13.290;2023-08-08T05:42:07;14.40;99.90
6439;DHT22;3252;52.540;13.290;2023-08-08T05:44:11;14.50;99.90
6439;DHT22;3252;52.540;13.290;2023-08-08T05:46:14;14.50;99.90
6439;DHT22;3252;52.540;13.290;2023-08-08T05:48:25;14.60;99.90
6439;DHT22;3252;52.540;13.290;2023-08-08T05:50:28;14.60;99.90
6439;DHT22;3252;52.540;13.290;2023-08-08T05:52:32;14.70;99.90
6439;DHT22;3252;52.540;13.290;2023-08-08T05:54:38;14.70;99.90
6439;DHT22;3252;52.540;13.290;2023-08-08T05:56:59;14.70;99.90
6439;DHT22;3252;52.540;13.290;2023-08-08T05:59:01;14.70;99.90
6439;DHT22;3252;52.540;13.290;2023-08-08T06:01:05;14.70;99.90
6439;DHT22;3252;52.540;13.290;2023-08-08T06:03:17;14.70;99.90
6439;DHT22;3252;52.540;13.290;2023-08-08T06:05:23;14.70;99.90
6439;DHT22;3252;52.540;13.290;2023-08-08T06:07:30;14.80;99.90
6439;DHT22;3252;52.540;13.290;2023-08-08T06:09:37;14.90;99.90
6439;DHT22;3252;52.540;13.290;2023-08-08T06:11:44;14.90;99.90
6439;DHT22;3252;52.540;13.290;2023-08-08T06:13:47;14.90;99.90
6439;DHT22;3252;52.540;13.290;2023-08-08T06:15:51;14.90;99.90
6439;DHT22;3252;52.540;13.290;2023-08-08T06:17:54;15.00;99.90
6439;DHT22;3252;52.540;13.290;2023-08-08T06:20:00;15.00;99.90
6439;DHT22;3252;52.540;13.290;2023-08-08T06:22:05;15.00;99.90
6439;DHT22;3252;52.540;13.290;2023-08-08T06:24:08;15.10;99.90
6439;DHT22;3252;52.540;13.290;2023-08-08T06:26:14;15.20;99.90
6439;DHT22;3252;52.540;13.290;2023-08-08T06:28:17;15.30;99.90
6439;DHT22;3252;52.540;13.290;2023-08-08T06:30:23;15.30;99.90
6439;DHT22;3252;52.540;13.290;2023-08-08T06:32:26;15.40;99.90
6439;DHT22;3252;52.540;13.290;2023-08-08T06:34:29;15.40;99.90
6439;DHT22;3252;52.540;13.290;2023-08-08T06:36:31;15.40;99.90
6439;DHT22;3252;52.540;13.290;2023-08-08T06:38:35;15.30;99.90
6439;DHT22;3252;52.540;13.290;2023-08-08T06:40:38;15.40;99.90
6439;DHT22;3252;52.540;13.290;2023-08-08T06:42:41;15.40;99.90
6439;DHT22;3252;52.540;13.290;2023-08-08T06:44:47;15.30;99.90
6439;DHT22;3252;52.540;13.290;2023-08-08T06:46:50;15.30;99.90
6439;DHT22;3252;52.540;13.290;2023-08-08T06:48:55;15.30;99.90
6439;DHT22;3252;52.540;13.290;2023-08-08T06:51:09;15.30;99.90
6439;DHT22;3252;52.540;13.290;2023-08-08T06:53:18;15.30;99.90
6439;DHT22;3252;52.540;13.290;2023-08-08T06:55:26;15.30;99.90
6439;DHT22;3252;52.540;13.290;2023-08-08T06:57:31;15.40;99.90
6439;DHT22;3252;52.540;13.290;2023-08-08T06:59:38;15.50;99.90
6439;DHT22;3252;52.540;13.290;2023-08-08T07:01:41;15.50;99.90
6439;DHT22;3252;52.540;13.290;2023-08-08T07:03:45;15.60;99.90
6439;DHT22;3252;52.540;13.290;2023-08-08T07:05:48;15.70;99.90
6439;DHT22;3252;52.540;13.290;2023-08-08T07:07:55;15.70;99.90
6439;DHT22;3252;52.540;13.290;2023-08-08T07:09:59;15.80;99.90
6439;DHT22;3252;52.540;13.290;2023-08-08T07:12:04;15.80;99.90
6439;DHT22;3252;52.540;13.290;2023-08-08T07:14:11;15.90;99.90
6439;DHT22;3252;52.540;13.290;2023-08-08T07:16:14;15.90;99.90
6439;DHT22;3252;52.540;13.290;2023-08-08T07:18:20;16.00;99.90
6439;DHT22;3252;52.540;13.290;2023-08-08T07:20:23;16.00;99.90
6439;DHT22;3252;52.540;13.290;2023-08-08T07:22:28;16.00;99.90
6439;DHT22;3252;52.540;13.290;2023-08-08T07:24:34;16.00;99.90
6439;DHT22;3252;52.540;13.290;2023-08-08T07:26:37;16.00;99.90
6439;DHT22;3252;52.540;13.290;2023-08-08T07:28:42;16.00;99.90
6439;DHT22;3252;52.540;13.290;2023-08-08T07:30:48;16.00;99.90
6439;DHT22;3252;52.540;13.290;2023-08-08T07:32:52;16.00;99.90
6439;DHT22;3252;52.540;13.290;2023-08-08T07:34:55;16.10;99.90
6439;DHT22;3252;52.540;13.290;2023-08-08T07:36:59;16.10;99.90
6439;DHT22;3252;52.540;13.290;2023-08-08T07:39:02;16.20;99.90
6439;DHT22;3252;52.540;13.290;2023-08-08T07:41:06;16.30;99.90
6439;DHT22;3252;52.540;13.290;2023-08-08T07:43:11;16.30;99.90
6439;DHT22;3252;52.540;13.290;2023-08-08T07:45:16;16.30;99.90
6439;DHT22;3252;52.540;13.290;2023-08-08T07:47:20;16.30;99.90
6439;DHT22;3252;52.540;13.290;2023-08-08T07:49:23;16.30;99.90
6439;DHT22;3252;52.540;13.290;2023-08-08T07:51:25;16.30;99.90
6439;DHT22;3252;52.540;13.290;2023-08-08T07:53:28;16.30;99.90
6439;DHT22;3252;52.540;13.290;2023-08-08T07:55:31;16.30;99.90
6439;DHT22;3252;52.540;13.290;2023-08-08T07:57:34;16.30;99.90
6439;DHT22;3252;52.540;13.290;2023-08-08T07:59:37;16.40;99.90
6439;DHT22;3252;52.540;13.290;2023-08-08T08:01:41;16.50;99.90
6439;DHT22;3252;52.540;13.290;2023-08-08T08:03:47;16.50;99.90
6439;DHT22;3252;52.540;13.290;2023-08-08T08:05:50;16.50;99.90
6439;DHT22;3252;52.540;13.290;2023-08-08T08:07:54;16.50;99.90
6439;DHT22;3252;52.540;13.290;2023-08-08T08:09:57;16.60;99.90
6439;DHT22;3252;52.540;13.290;2023-08-08T08:12:04;16.60;99.90
6439;DHT22;3252;52.540;13.290;2023-08-08T08:14:10;16.60;99.90
6439;DHT22;3252;52.540;13.290;2023-08-08T08:16:16;16.70;99.90
6439;DHT22;3252;52.540;13.290;2023-08-08T08:18:25;16.70;99.90
6439;DHT22;3252;52.540;13.290;2023-08-08T08:20:33;16.70;99.90
6439;DHT22;3252;52.540;13.290;2023-08-08T08:22:36;16.80;99.90
6439;DHT22;3252;52.540;13.290;2023-08-08T08:24:39;16.80;99.90
6439;DHT22;3252;52.540;13.290;2023-08-08T08:26:42;16.80;99.90
6439;DHT22;3252;52.540;13.290;2023-08-08T08:28:49;16.80;99.90
6439;DHT22;3252;52.540;13.290;2023-08-08T08:30:52;16.90;99.90
6439;DHT22;3252;52.540;13.290;2023-08-08T08:32:57;17.00;99.90
6439;DHT22;3252;52.540;13.290;2023-08-08T08:35:02;17.10;99.90
6439;DHT22;3252;52.540;13.290;2023-08-08T08:37:07;17.10;99.90
6439;DHT22;3252;52.540;13.290;2023-08-08T08:39:11;17.00;99.90
6439;DHT22;3252;52.540;13.290;2023-08-08T08:41:18;17.00;99.90
6439;DHT22;3252;52.540;13.290;2023-08-08T08:43:24;17.00;99.90
6439;DHT22;3252;52.540;13.290;2023-08-08T08:45:30;17.00;99.90
6439;DHT22;3252;52.540;13.290;2023-08-08T08:47:37;17.00;99.90
6439;DHT22;3252;52.540;13.290;2023-08-08T08:49:44;17.10;99.90
6439;DHT22;3252;52.540;13.290;2023-08-08T08:51:52;17.20;99.90
6439;DHT22;3252;52.540;13.290;2023-08-08T08:53:58;17.20;99.90
6439;DHT22;3252;52.540;13.290;2023-08-08T08:56:02;17.20;99.90
6439;DHT22;3252;52.540;13.290;2023-08-08T08:58:05;17.30;99.90
6439;DHT22;3252;52.540;13.290;2023-08-08T09:00:10;17.30;99.90
6439;DHT22;3252;52.540;13.290;2023-08-08T09:02:16;17.30;99.90
6439;DHT22;3252;52.540;13.290;2023-08-08T09:04:24;17.40;99.90
6439;DHT22;3252;52.540;13.290;2023-08-08T09:06:27;17.50;99.90
6439;DHT22;3252;52.540;13.290;2023-08-08T09:08:39;17.60;99.90
6439;DHT22;3252;52.540;13.290;2023-08-08T09:10:42;17.60;99.90
6439;DHT22;3252;52.540;13.290;2023-08-08T09:12:48;17.70;99.90
6439;DHT22;3252;52.540;13.290;2023-08-08T09:14:55;17.60;99.90
6439;DHT22;3252;52.540;13.290;2023-08-08T09:16:58;17.60;99.90
6439;DHT22;3252;52.540;13.290;2023-08-08T09:19:01;17.70;99.90
6439;DHT22;3252;52.540;13.290;2023-08-08T09:21:05;17.70;99.90
6439;DHT22;3252;52.540;13.290;2023-08-08T09:23:09;17.80;99.90
6439;DHT22;3252;52.540;13.290;2023-08-08T09:25:13;17.90;99.90
6439;DHT22;3252;52.540;13.290;2023-08-08T09:27:16;17.80;99.90
6439;DHT22;3252;52.540;13.290;2023-08-08T09:29:19;17.70;99.90
6439;DHT22;3252;52.540;13.290;2023-08-08T09:31:25;17.70;99.90
6439;DHT22;3252;52.540;13.290;2023-08-08T09:33:29;17.70;99.90
6439;DHT22;3252;52.540;13.290;2023-08-08T09:35:33;17.80;99.90
6439;DHT22;3252;52.540;13.290;2023-08-08T09:37:38;17.90;99.90
6439;DHT22;3252;52.540;13.290;2023-08-08T09:39:42;17.90;99.90
6439;DHT22;3252;52.540;13.290;2023-08-08T09:41:48;18.10;99.90
6439;DHT22;3252;52.540;13.290;2023-08-08T09:43:52;18.60;99.90
6439;DHT22;3252;52.540;13.290;2023-08-08T09:45:56;18.80;99.90
6439;DHT22;3252;52.540;13.290;2023-08-08T09:47:59;18.70;99.90
6439;DHT22;3252;52.540;13.290;2023-08-08T09:50:03;18.40;99.90
6439;DHT22;3252;52.540;13.290;2023-08-08T09:52:08;18.20;99.90
6439;DHT22;3252;52.540;13.290;2023-08-08T09:54:12;18.10;99.90
6439;DHT22;3252;52.540;13.290;2023-08-08T09:56:21;17.80;99.90
6439;DHT22;3252;52.540;13.290;2023-08-08T09:58:26;17.70;99.90
6439;DHT22;3252;52.540;13.290;2023-08-08T10:00:30;17.60;99.90
6439;DHT22;3252;52.540;13.290;2023-08-08T10:02:36;17.50;99.90
6439;DHT22;3252;52.540;13.290;2023-08-08T10:04:40;17.30;99.90
6439;DHT22;3252;52.540;13.290;2023-08-08T10:06:55;17.30;99.90
6439;DHT22;3252;52.540;13.290;2023-08-08T10:09:00;17.20;99.90
6439;DHT22;3252;52.540;13.290;2023-08-08T10:11:14;17.30;99.90
6439;DHT22;3252;52.540;13.290;2023-08-08T10:13:21;17.40;99.90
6439;DHT22;3252;52.540;13.290;2023-08-08T10:15:39;17.20;99.90
6439;DHT22;3252;52.540;13.290;2023-08-08T10:17:43;17.10;99.90
6439;DHT22;3252;52.540;13.290;2023-08-08T10:19:51;17.10;99.90
6439;DHT22;3252;52.540;13.290;2023-08-08T10:22:00;17.10;99.90
6439;DHT22;3252;52.540;13.290;2023-08-08T10:24:34;17.20;99.90
6439;DHT22;3252;52.540;13.290;2023-08-08T10:26:53;17.50;99.90
6439;DHT22;3252;52.540;13.290;2023-08-08T10:29:01;17.90;99.90
6439;DHT22;3252;52.540;13.290;2023-08-08T10:31:17;18.20;99.90
6439;DHT22;3252;52.540;13.290;2023-08-08T10:33:25;18.40;99.90
6439;DHT22;3252;52.540;13.290;2023-08-08T10:35:37;18.60;99.90
6439;DHT22;3252;52.540;13.290;2023-08-08T10:37:40;18.50;99.90
6439;DHT22;3252;52.540;13.290;2023-08-08T10:39:58;18.40;99.90
6439;DHT22;3252;52.540;13.290;2023-08-08T10:42:05;18.40;99.90
6439;DHT22;3252;52.540;13.290;2023-08-08T10:44:11;18.20;99.90
6439;DHT22;3252;52.540;13.290;2023-08-08T10:46:23;18.00;99.90
6439;DHT22;3252;52.540;13.290;2023-08-08T10:48:26;17.90;99.80
6439;DHT22;3252;52.540;13.290;2023-08-08T10:50:30;17.80;99.90
6439;DHT22;3252;52.540;13.290;2023-08-08T10:52:49;17.80;99.90
6439;DHT22;3252;52.540;13.290;2023-08-08T10:54:53;17.90;99.90
6439;DHT22;3252;52.540;13.290;2023-08-08T10:56:58;17.90;99.90
6439;DHT22;3252;52.540;13.290;2023-08-08T10:59:13;18.00;99.90
6439;DHT22;3252;52.540;13.290;2023-08-08T11:01:16;18.20;99.90
6439;DHT22;3252;52.540;13.290;2023-08-08T11:03:21;18.40;99.90
6439;DHT22;3252;52.540;13.290;2023-08-08T11:05:28;18.50;99.90
6439;DHT22;3252;52.540;13.290;2023-08-08T11:07:31;18.60;99.90
6439;DHT22;3252;52.540;13.290;2023-08-08T11:09:36;18.70;99.90
6439;DHT22;3252;52.540;13.290;2023-08-08T11:11:41;18.80;99.90
6439;DHT22;3252;52.540;13.290;2023-08-08T11:13:43;18.90;99.90
6439;DHT22;3252;52.540;13.290;2023-08-08T11:15:48;19.10;99.50
6439;DHT22;3252;52.540;13.290;2023-08-08T11:17:52;19.10;99.30
6439;DHT22;3252;52.540;13.290;2023-08-08T11:19:56;19.20;99.90
6439;DHT22;3252;52.540;13.290;2023-08-08T11:21:59;19.20;99.30
6439;DHT22;3252;52.540;13.290;2023-08-08T11:24:04;19.00;95.40
6439;DHT22;3252;52.540;13.290;2023-08-08T11:26:07;18.90;95.90
6439;DHT22;3252;52.540;13.290;2023-08-08T11:28:12;18.80;96.10
6439;DHT22;3252;52.540;13.290;2023-08-08T11:30:15;18.80;96.10
6439;DHT22;3252;52.540;13.290;2023-08-08T11:32:17;18.60;95.80
6439;DHT22;3252;52.540;13.290;2023-08-08T11:34:20;18.50;96.50
6439;DHT22;3252;52.540;13.290;2023-08-08T11:36:26;18.30;96.10
6439;DHT22;3252;52.540;13.290;2023-08-08T11:38:32;18.30;97.50
6439;DHT22;3252;52.540;13.290;2023-08-08T11:40:36;18.30;97.90
6439;DHT22;3252;52.540;13.290;2023-08-08T11:42:40;18.40;99.00
6439;DHT22;3252;52.540;13.290;2023-08-08T11:44:44;18.40;99.50
6439;DHT22;3252;52.540;13.290;2023-08-08T11:46:47;18.40;99.20
6439;DHT22;3252;52.540;13.290;2023-08-08T11:48:50;18.40;99.90
6439;DHT22;3252;52.540;13.290;2023-08-08T11:50:53;18.40;99.90
6439;DHT22;3252;52.540;13.290;2023-08-08T11:52:57;18.40;99.90
6439;DHT22;3252;52.540;13.290;2023-08-08T11:55:00;18.50;99.90
6439;DHT22;3252;52.540;13.290;2023-08-08T11:57:03;18.50;99.90
6439;DHT22;3252;52.540;13.290;2023-08-08T11:59:07;18.60;99.90
6439;DHT22;3252;52.540;13.290;2023-08-08T12:01:10;18.70;99.90
6439;DHT22;3252;52.540;13.290;2023-08-08T12:03:19;18.80;99.90
6439;DHT22;3252;52.540;13.290;2023-08-08T12:05:22;18.80;99.80
6439;DHT22;3252;52.540;13.290;2023-08-08T12:07:25;18.90;99.90
6439;DHT22;3252;52.540;13.290;2023-08-08T12:09:33;19.00;99.70
6439;DHT22;3252;52.540;13.290;2023-08-08T12:11:37;19.10;99.10
6439;DHT22;3252;52.540;13.290;2023-08-08T12:13:41;19.20;99.80
6439;DHT22;3252;52.540;13.290;2023-08-08T12:15:44;19.30;99.60
6439;DHT22;3252;52.540;13.290;2023-08-08T12:17:52;19.40;99.40
6439;DHT22;3252;52.540;13.290;2023-08-08T12:19:59;19.40;99.00
6439;DHT22;3252;52.540;13.290;2023-08-08T12:22:05;19.50;99.30
6439;DHT22;3252;52.540;13.290;2023-08-08T12:24:08;19.60;99.30
6439;DHT22;3252;52.540;13.290;2023-08-08T12:26:18;19.70;99.00
6439;DHT22;3252;52.540;13.290;2023-08-08T12:28:42;19.80;99.90
6439;DHT22;3252;52.540;13.290;2023-08-08T12:31:02;19.80;98.60
6439;DHT22;3252;52.540;13.290;2023-08-08T12:33:12;19.90;98.20
6439;DHT22;3252;52.540;13.290;2023-08-08T12:35:20;19.90;99.50
6439;DHT22;3252;52.540;13.290;2023-08-08T12:37:24;19.80;98.20
6439;DHT22;3252;52.540;13.290;2023-08-08T12:39:38;19.70;98.70
6439;DHT22;3252;52.540;13.290;2023-08-08T12:41:45;19.60;99.40
6439;DHT22;3252;52.540;13.290;2023-08-08T12:44:01;19.60;99.60
6439;DHT22;3252;52.540;13.290;2023-08-08T12:46:13;19.50;98.10
6439;DHT22;3252;52.540;13.290;2023-08-08T12:48:16;19.40;98.10
6439;DHT22;3252;52.540;13.290;2023-08-08T12:50:21;19.40;97.80
6439;DHT22;3252;52.540;13.290;2023-08-08T12:52:27;19.40;98.30
6439;DHT22;3252;52.540;13.290;2023-08-08T12:55:08;19.50;99.30
6439;DHT22;3252;52.540;13.290;2023-08-08T12:57:14;19.40;97.40
6439;DHT22;3252;52.540;13.290;2023-08-08T12:59:18;19.50;99.10
6439;DHT22;3252;52.540;13.290;2023-08-08T13:01:22;19.50;98.40
6439;DHT22;3252;52.540;13.290;2023-08-08T13:03:27;19.50;96.60
6439;DHT22;3252;52.540;13.290;2023-08-08T13:05:32;19.70;97.50
6439;DHT22;3252;52.540;13.290;2023-08-08T13:07:35;19.80;95.70
6439;DHT22;3252;52.540;13.290;2023-08-08T13:09:39;19.90;95.30
6439;DHT22;3252;52.540;13.290;2023-08-08T13:11:46;20.00;94.90
6439;DHT22;3252;52.540;13.290;2023-08-08T13:13:53;20.10;93.60
6439;DHT22;3252;52.540;13.290;2023-08-08T13:16:07;20.20;90.50
6439;DHT22;3252;52.540;13.290;2023-08-08T13:18:12;20.20;91.00
6439;DHT22;3252;52.540;13.290;2023-08-08T13:20:19;20.30;90.20
6439;DHT22;3252;52.540;13.290;2023-08-08T13:22:32;20.20;90.30
6439;DHT22;3252;52.540;13.290;2023-08-08T13:24:35;20.20;90.50
6439;DHT22;3252;52.540;13.290;2023-08-08T13:26:37;20.10;91.10
6439;DHT22;3252;52.540;13.290;2023-08-08T13:28:41;20.00;90.90
6439;DHT22;3252;52.540;13.290;2023-08-08T13:30:46;20.00;91.50